Time;durP1;ratioP1;P1;durP2;ratioP2;P2;SDS_P1;SDS_P2;PMS_P1;PMS_P2;Temp;Humidity;BMP_temperature;BMP_pressure;BME280_temperature;BME280_humidity;BME280_pressure;Samples;Min_cycle;Max_cycle;Signal;HPM_P1;HPM_P2
2022/04/20 00:02:14;;;;;;;7.90;2.95;;;10.40;80.00;;;;;;4992728;28;20555;-91
2022/04/20 00:04:39;;;;;;;11.55;3.30;;;10.40;80.00;;;;;;4992829;28;20042;-91
2022/04/20 00:07:05;;;;;;;7.82;3.42;;;10.40;80.00;;;;;;4992626;28;20038;-91
2022/04/20 00:09:30;;;;;;;11.70;3.28;;;10.40;80.10;;;;;;4993794;28;20050;-91
2022/04/20 00:11:56;;;;;;;8.82;3.03;;;10.40;80.20;;;;;;4991429;28;20503;-91
2022/04/20 00:14:22;;;;;;;8.30;3.17;;;10.30;80.30;;;;;;4992665;28;20046;-90
2022/04/20 00:16:47;;;;;;;8.90;3.45;;;10.40;80.60;;;;;;4992951;28;20042;-91
2022/04/20 00:19:13;;;;;;;7.63;3.22;;;10.30;80.60;;;;;;4992472;28;20582;-90
2022/04/20 00:21:38;;;;;;;8.55;3.33;;;10.30;80.80;;;;;;4992024;28;20057;-91
2022/04/20 00:24:04;;;;;;;8.40;3.60;;;10.30;80.80;;;;;;4992309;28;20415;-90
2022/04/20 00:26:30;;;;;;;12.95;4.05;;;10.30;81.00;;;;;;4992479;28;20680;-91
2022/04/20 00:28:55;;;;;;;11.73;3.97;;;10.30;81.70;;;;;;4992622;28;20037;-90
2022/04/20 00:31:21;;;;;;;10.05;3.55;;;10.20;81.80;;;;;;4991845;28;20515;-90
2022/04/20 00:33:46;;;;;;;10.60;4.18;;;10.20;81.90;;;;;;4991936;28;20042;-90
2022/04/20 00:36:12;;;;;;;9.75;3.85;;;10.20;82.40;;;;;;4992628;28;20100;-91
2022/04/20 00:38:38;;;;;;;8.30;3.33;;;10.20;82.50;;;;;;4992020;28;20531;-91
2022/04/20 00:41:03;;;;;;;9.45;3.85;;;10.20;82.70;;;;;;4991779;28;20046;-91
2022/04/20 00:43:29;;;;;;;13.93;3.65;;;10.10;82.70;;;;;;4992051;28;20551;-90
2022/04/20 00:45:56;;;;;;;9.15;3.58;;;10.10;83.10;;;;;;5000653;28;20037;-90
2022/04/20 00:48:22;;;;;;;9.15;3.90;;;10.10;83.40;;;;;;4992247;28;20491;-90
2022/04/20 00:50:48;;;;;;;10.02;3.53;;;10.10;83.70;;;;;;4977060;28;20042;-90
2022/04/20 00:53:14;;;;;;;8.35;3.75;;;10.10;84.00;;;;;;4993802;28;20042;-90
2022/04/20 00:55:40;;;;;;;10.18;3.60;;;10.00;84.10;;;;;;4993224;28;20078;-90
2022/04/20 00:58:05;;;;;;;8.77;3.95;;;10.00;84.40;;;;;;4975778;28;20073;-89
2022/04/20 01:00:31;;;;;;;9.07;3.67;;;10.00;85.20;;;;;;4990480;28;20038;-90
2022/04/20 01:02:57;;;;;;;8.30;3.65;;;10.00;84.70;;;;;;4976037;28;20038;-89
2022/04/20 01:05:23;;;;;;;9.48;3.97;;;10.00;85.20;;;;;;4991939;28;20102;-90
2022/04/20 01:07:49;;;;;;;8.68;4.00;;;10.00;85.40;;;;;;4991263;28;20038;-90
2022/04/20 01:10:15;;;;;;;9.20;4.00;;;9.90;85.40;;;;;;4991350;28;20259;-90
2022/04/20 01:12:44;;;;;;;9.30;4.25;;;9.90;85.60;;;;;;4974985;28;20069;-90
2022/04/20 01:15:10;;;;;;;9.43;3.88;;;9.90;86.10;;;;;;4975574;28;20084;-90
2022/04/20 01:17:36;;;;;;;9.63;3.75;;;9.90;86.10;;;;;;4972894;28;20646;-89
2022/04/20 01:20:02;;;;;;;9.30;4.20;;;9.90;86.10;;;;;;4955770;28;20042;-89
2022/04/20 01:22:28;;;;;;;7.93;3.55;;;9.90;86.50;;;;;;4971960;28;20042;-90
2022/04/20 01:24:54;;;;;;;9.20;3.75;;;9.90;86.90;;;;;;4971777;28;20700;-90
2022/04/20 01:27:19;;;;;;;8.95;3.75;;;9.80;87.30;;;;;;4955775;28;20483;-89
2022/04/20 01:29:46;;;;;;;8.90;3.92;;;9.80;87.50;;;;;;4955543;28;20043;-90
2022/04/20 01:32:11;;;;;;;9.43;3.95;;;9.80;88.20;;;;;;4971630;28;20031;-90
2022/04/20 01:34:37;;;;;;;9.45;4.10;;;9.80;87.90;;;;;;4971898;28;20069;-90
2022/04/20 01:37:03;;;;;;;10.85;3.58;;;9.80;88.40;;;;;;4971487;28;20515;-90
2022/04/20 01:39:28;;;;;;;9.55;3.97;;;9.70;88.60;;;;;;4971564;28;20478;-89
2022/04/20 01:41:54;;;;;;;8.68;4.22;;;9.70;89.20;;;;;;4970910;28;20072;-90
2022/04/20 01:44:19;;;;;;;9.98;3.80;;;9.70;89.40;;;;;;4955605;28;20117;-89
2022/04/20 01:46:45;;;;;;;10.48;4.07;;;9.70;89.40;;;;;;4971818;28;20459;-89
2022/04/20 01:49:11;;;;;;;11.48;3.88;;;9.60;89.60;;;;;;4971333;28;20527;-89
2022/04/20 01:51:51;;;;;;;9.60;3.75;;;9.60;89.90;;;;;;4969879;28;20089;-89
2022/04/20 01:54:21;;;;;;;9.68;3.95;;;9.60;90.10;;;;;;4971496;28;20042;-88
2022/04/20 01:56:48;;;;;;;9.65;4.13;;;9.60;90.20;;;;;;4971449;28;20512;-89
2022/04/20 01:59:14;;;;;;;9.30;3.67;;;9.60;90.20;;;;;;4980029;28;20066;-89
2022/04/20 02:04:25;;;;;;;7.75;3.60;;;9.50;90.50;;;;;;4990496;28;20054;-89
2022/04/20 02:06:50;;;;;;;8.60;3.78;;;9.50;90.50;;;;;;4990804;28;20396;-89
2022/04/20 02:09:16;;;;;;;9.38;3.95;;;9.50;90.50;;;;;;4990801;28;20046;-90
2022/04/20 02:11:41;;;;;;;10.35;4.20;;;9.40;90.60;;;;;;4990364;28;20034;-89
2022/04/20 02:14:07;;;;;;;9.63;3.63;;;9.40;90.60;;;;;;4990664;28;20076;-90
2022/04/20 02:16:32;;;;;;;10.05;3.97;;;9.40;90.80;;;;;;4990282;28;20068;-90
2022/04/20 02:18:58;;;;;;;9.88;4.30;;;9.40;91.00;;;;;;4990821;28;20057;-90
2022/04/20 02:21:24;;;;;;;9.52;3.92;;;9.40;91.10;;;;;;4990025;28;20056;-89
2022/04/20 02:23:49;;;;;;;10.05;4.07;;;9.40;91.10;;;;;;4990504;28;20039;-90
2022/04/20 02:26:15;;;;;;;9.90;4.07;;;9.30;91.30;;;;;;4990343;28;20034;-90
2022/04/20 02:28:40;;;;;;;9.90;4.30;;;9.30;91.30;;;;;;4990664;28;20042;-89
2022/04/20 02:31:06;;;;;;;9.50;3.95;;;9.30;91.30;;;;;;4989726;28;20511;-90
2022/04/20 02:33:31;;;;;;;9.30;3.83;;;9.30;91.60;;;;;;4990339;28;20050;-90
2022/04/20 02:35:58;;;;;;;9.73;4.00;;;9.30;91.50;;;;;;4994395;28;20096;-90
2022/04/20 02:38:23;;;;;;;10.55;3.83;;;9.30;91.50;;;;;;4994325;28;20049;-90
2022/04/20 02:40:51;;;;;;;8.93;3.92;;;9.30;91.50;;;;;;4993726;28;20415;-90
2022/04/20 02:43:17;;;;;;;8.98;3.70;;;9.20;91.60;;;;;;4993800;28;20432;-90
2022/04/20 02:45:42;;;;;;;9.48;4.15;;;9.20;91.80;;;;;;4994081;28;20046;-89
2022/04/20 02:48:09;;;;;;;9.02;4.03;;;9.20;91.70;;;;;;4994316;28;20042;-90
2022/04/20 02:50:35;;;;;;;10.25;4.40;;;9.20;91.90;;;;;;4993460;28;20042;-89
2022/04/20 02:53:00;;;;;;;9.32;3.60;;;9.10;91.70;;;;;;4994135;28;20384;-89
2022/04/20 02:55:26;;;;;;;12.38;4.78;;;9.10;91.70;;;;;;4994072;28;20463;-90
2022/04/20 02:57:51;;;;;;;10.85;3.92;;;9.10;91.90;;;;;;4994032;28;20038;-89
2022/04/20 03:00:17;;;;;;;10.15;4.03;;;9.10;91.70;;;;;;4992746;28;20499;-90
2022/04/20 03:02:43;;;;;;;9.77;4.80;;;9.10;91.90;;;;;;4977646;28;20097;-89
2022/04/20 03:05:09;;;;;;;11.30;4.30;;;9.00;91.90;;;;;;4993844;28;20059;-90
2022/04/20 03:07:35;;;;;;;9.63;4.05;;;9.00;91.80;;;;;;4993754;28;20046;-90
2022/04/20 03:10:01;;;;;;;8.95;3.92;;;9.00;91.90;;;;;;4977149;28;20042;-89
2022/04/20 03:12:27;;;;;;;9.75;3.97;;;9.00;91.80;;;;;;4993528;28;20082;-89
2022/04/20 03:14:54;;;;;;;9.63;3.63;;;9.00;91.70;;;;;;4993791;28;20077;-89
2022/04/20 03:17:24;;;;;;;10.02;4.47;;;8.90;91.80;;;;;;4993586;28;20125;-89
2022/04/20 03:19:51;;;;;;;9.63;3.85;;;8.90;91.90;;;;;;4975642;28;20455;-90
2022/04/20 03:22:17;;;;;;;7.75;3.40;;;8.90;91.70;;;;;;4993594;28;20066;-89
2022/04/20 03:24:42;;;;;;;9.85;4.00;;;8.90;92.00;;;;;;4993631;28;20046;-90
2022/04/20 03:27:08;;;;;;;12.98;4.07;;;8.90;92.00;;;;;;4993408;28;20050;-90
2022/04/20 03:29:34;;;;;;;9.63;3.88;;;8.80;91.90;;;;;;4993070;28;20128;-89
2022/04/20 03:32:07;;;;;;;10.80;4.03;;;8.80;92.00;;;;;;4993081;28;20451;-90
2022/04/20 03:34:33;;;;;;;11.38;4.35;;;8.80;92.00;;;;;;4993411;28;20042;-90
2022/04/20 03:36:59;;;;;;;10.70;3.75;;;8.80;92.00;;;;;;4977347;28;20126;-90
2022/04/20 03:39:24;;;;;;;8.07;3.53;;;8.80;92.10;;;;;;4993230;28;20439;-90
2022/04/20 03:41:50;;;;;;;9.40;4.38;;;8.70;92.20;;;;;;4992355;28;20042;-90
2022/04/20 03:44:15;;;;;;;9.80;4.10;;;8.70;92.10;;;;;;4992308;28;20042;-90
2022/04/20 03:46:41;;;;;;;10.20;3.83;;;8.70;92.20;;;;;;4991723;28;20538;-90
2022/04/20 03:49:06;;;;;;;8.73;3.63;;;8.70;92.30;;;;;;4993155;28;20403;-90
2022/04/20 03:51:32;;;;;;;9.93;3.90;;;8.70;92.30;;;;;;4976136;28;20496;-89
2022/04/20 03:53:58;;;;;;;11.25;4.38;;;8.70;92.20;;;;;;4992863;28;20073;-90
2022/04/20 03:56:24;;;;;;;10.38;4.00;;;8.60;92.50;;;;;;4992664;28;20112;-90
2022/04/20 03:58:49;;;;;;;9.10;4.15;;;8.60;92.40;;;;;;4991840;28;20054;-90
2022/04/20 04:01:16;;;;;;;8.80;3.80;;;8.60;92.40;;;;;;4992325;28;20042;-89
2022/04/20 04:03:41;;;;;;;9.55;4.13;;;8.60;92.50;;;;;;4976639;28;20034;-90
2022/04/20 04:06:07;;;;;;;9.93;4.18;;;8.50;92.60;;;;;;4992861;28;20050;-89
2022/04/20 04:08:33;;;;;;;10.73;4.72;;;8.40;92.80;;;;;;4992465;28;20064;-89
2022/04/20 04:10:58;;;;;;;9.65;4.45;;;8.30;93.10;;;;;;4976173;28;20038;-89
2022/04/20 04:13:24;;;;;;;9.55;4.10;;;8.20;93.30;;;;;;4992127;28;20050;-90
2022/04/20 04:15:50;;;;;;;9.45;3.95;;;8.00;93.60;;;;;;4992660;28;20043;-90
2022/04/20 04:18:16;;;;;;;10.55;4.13;;;7.90;93.90;;;;;;4976658;28;20034;-89
2022/04/20 04:20:43;;;;;;;11.68;4.88;;;7.80;94.20;;;;;;4976035;28;20128;-89
2022/04/20 04:23:08;;;;;;;8.82;4.35;;;7.80;94.40;;;;;;4992355;28;20101;-90
2022/04/20 04:25:34;;;;;;;9.38;4.18;;;7.70;94.60;;;;;;4992231;28;20046;-89
2022/04/20 04:27:59;;;;;;;11.13;4.60;;;7.70;94.80;;;;;;4992107;28;20039;-89
2022/04/20 04:30:27;;;;;;;9.35;4.15;;;7.60;94.90;;;;;;4975543;28;20034;-90
2022/04/20 04:32:53;;;;;;;10.23;4.18;;;7.60;95.00;;;;;;4992368;28;20145;-89
2022/04/20 04:35:19;;;;;;;11.82;4.80;;;7.60;95.20;;;;;;4992398;28;20046;-89
2022/04/20 04:37:45;;;;;;;11.57;5.05;;;7.60;95.30;;;;;;4991727;28;20586;-90
2022/04/20 04:40:11;;;;;;;9.32;4.80;;;7.60;95.30;;;;;;4991826;28;20129;-89
2022/04/20 04:42:37;;;;;;;9.45;4.93;;;7.60;95.40;;;;;;4975656;28;20042;-89
2022/04/20 04:50:31;;;;;;;10.52;4.75;;;7.60;95.80;;;;;;4991765;28;20038;-89
2022/04/20 04:52:57;;;;;;;10.43;4.03;;;7.60;95.70;;;;;;4991850;28;20043;-89
2022/04/20 04:55:22;;;;;;;9.10;4.20;;;7.60;95.90;;;;;;4975699;28;20132;-89
2022/04/20 04:57:48;;;;;;;9.02;3.90;;;7.60;96.00;;;;;;4975223;28;20138;-90
2022/04/20 05:00:13;;;;;;;10.13;5.03;;;7.60;96.10;;;;;;4990521;28;20117;-89
2022/04/20 05:02:39;;;;;;;9.93;4.40;;;7.50;96.30;;;;;;4992088;28;20134;-89
2022/04/20 05:05:05;;;;;;;10.93;5.20;;;7.50;96.40;;;;;;4991541;28;20423;-90
2022/04/20 05:07:30;;;;;;;9.30;4.82;;;7.50;96.50;;;;;;4974139;28;20030;-89
2022/04/20 05:09:56;;;;;;;13.13;5.38;;;7.50;96.70;;;;;;4985051;28;20039;-89
2022/04/20 05:12:22;;;;;;;10.55;4.72;;;7.50;96.90;;;;;;5001677;28;20392;-89
2022/04/20 05:14:47;;;;;;;11.07;5.03;;;7.50;97.00;;;;;;5011231;28;20034;-89
2022/04/20 05:17:13;;;;;;;13.40;5.68;;;7.50;97.20;;;;;;5011097;28;20046;-89
2022/04/20 05:19:39;;;;;;;11.15;4.95;;;7.50;97.20;;;;;;5011198;28;20490;-89
2022/04/20 05:22:05;;;;;;;10.50;5.13;;;7.50;97.30;;;;;;4993936;28;20535;-89
2022/04/20 05:24:30;;;;;;;9.00;4.82;;;7.50;97.40;;;;;;5010926;28;20038;-89
2022/04/20 05:26:56;;;;;;;10.98;4.80;;;7.50;97.50;;;;;;5011336;28;20547;-89
2022/04/20 05:29:22;;;;;;;10.30;5.03;;;7.50;97.60;;;;;;5007489;28;20503;-89
2022/04/20 05:31:51;;;;;;;9.90;4.88;;;7.50;97.60;;;;;;5010464;28;20416;-89
2022/04/20 05:34:17;;;;;;;9.40;4.75;;;7.60;97.60;;;;;;5005967;28;20058;-90
2022/04/20 05:42:11;;;;;;;9.73;4.45;;;7.70;97.80;;;;;;4972797;28;20054;-90
2022/04/20 05:44:37;;;;;;;10.43;5.03;;;7.70;97.80;;;;;;4957152;28;20047;-89
2022/04/20 05:47:03;;;;;;;10.45;4.55;;;7.70;97.80;;;;;;4972872;28;20043;-90
2022/04/20 05:49:28;;;;;;;9.90;4.30;;;7.70;98.00;;;;;;4972528;28;20038;-89
2022/04/20 05:51:54;;;;;;;11.55;4.72;;;7.80;98.00;;;;;;4971604;28;20448;-89
2022/04/20 05:54:19;;;;;;;11.82;5.05;;;7.80;97.90;;;;;;4955626;28;20500;-88
2022/04/20 05:56:45;;;;;;;10.98;5.00;;;7.90;97.80;;;;;;4971478;28;20046;-88
2022/04/20 05:59:10;;;;;;;11.65;5.32;;;8.00;97.90;;;;;;4980046;28;20046;-88
2022/04/20 06:01:36;;;;;;;12.68;5.40;;;8.00;97.80;;;;;;4990504;28;20042;-88
2022/04/20 06:04:01;;;;;;;10.20;4.68;;;8.00;97.80;;;;;;4990639;28;20048;-88
2022/04/20 06:06:28;;;;;;;11.73;5.05;;;8.10;97.80;;;;;;4990902;28;20044;-88
2022/04/20 06:08:54;;;;;;;9.90;4.72;;;8.20;97.90;;;;;;4989972;28;20049;-88
2022/04/20 06:11:19;;;;;;;11.45;4.75;;;8.20;98.00;;;;;;5004191;28;20038;-87
2022/04/20 06:13:45;;;;;;;12.30;5.22;;;8.20;98.10;;;;;;5010153;28;20045;-87
2022/04/20 06:16:10;;;;;;;10.57;4.60;;;8.30;98.10;;;;;;5009630;28;20049;-88
2022/04/20 06:18:37;;;;;;;12.40;5.03;;;8.30;98.00;;;;;;5009921;28;20048;-88
2022/04/20 06:21:03;;;;;;;10.23;4.78;;;8.40;98.00;;;;;;5010175;28;20423;-88
2022/04/20 06:23:29;;;;;;;11.27;4.63;;;8.50;98.00;;;;;;5000055;28;20046;-88
2022/04/20 06:25:55;;;;;;;10.73;4.40;;;8.60;98.00;;;;;;4990033;28;20514;-89
2022/04/20 06:28:23;;;;;;;11.13;5.25;;;8.60;97.80;;;;;;4990283;28;20045;-88
2022/04/20 06:30:49;;;;;;;10.32;5.20;;;8.70;97.60;;;;;;4989540;28;20049;-89
2022/04/20 06:33:14;;;;;;;11.48;4.72;;;8.80;97.40;;;;;;4990189;28;20042;-89
2022/04/20 06:35:40;;;;;;;12.07;4.35;;;8.90;97.00;;;;;;4990343;28;20399;-89
2022/04/20 06:38:06;;;;;;;11.60;3.78;;;9.00;96.80;;;;;;4990137;28;20488;-89
2022/04/20 06:40:32;;;;;;;9.18;3.83;;;9.10;96.40;;;;;;4989684;28;20121;-89
2022/04/20 06:42:57;;;;;;;8.32;3.50;;;9.30;95.70;;;;;;4989938;28;20180;-89
2022/04/20 06:45:23;;;;;;;8.95;3.90;;;9.30;95.10;;;;;;4989885;28;20420;-89
2022/04/20 06:47:49;;;;;;;7.63;3.35;;;9.40;94.70;;;;;;4989769;28;20046;-89
2022/04/20 06:50:14;;;;;;;9.77;3.78;;;9.50;94.20;;;;;;4989751;28;20038;-89
2022/04/20 07:00:53;;;;;;;9.15;3.30;;;9.90;92.90;;;;;;4989859;28;20055;-89
2022/04/20 07:03:19;;;;;;;7.75;3.42;;;10.00;92.20;;;;;;4989266;28;20129;-88
2022/04/20 07:05:44;;;;;;;10.98;3.63;;;10.10;91.90;;;;;;4990172;28;20034;-88
2022/04/20 07:08:10;;;;;;;9.75;3.35;;;10.20;91.30;;;;;;4989794;28;20059;-88
2022/04/20 07:10:36;;;;;;;7.72;3.25;;;10.30;91.20;;;;;;4989361;28;20049;-89
2022/04/20 07:13:01;;;;;;;8.75;3.90;;;10.40;91.20;;;;;;4990010;28;20038;-88
2022/04/20 07:15:27;;;;;;;8.93;3.97;;;10.50;90.80;;;;;;4990198;28;20082;-89
2022/04/20 07:17:52;;;;;;;9.85;4.13;;;10.50;90.50;;;;;;4989881;28;20046;-89
2022/04/20 07:20:18;;;;;;;10.52;4.50;;;10.60;90.50;;;;;;4990522;28;20034;-90
2022/04/20 07:22:47;;;;;;;8.00;3.47;;;10.70;90.10;;;;;;4992871;28;20108;-90
2022/04/20 07:25:14;;;;;;;8.65;3.50;;;10.80;88.80;;;;;;4993700;28;20077;-90
2022/04/20 07:27:40;;;;;;;10.48;3.45;;;10.90;86.70;;;;;;4992967;28;20385;-89
2022/04/20 07:30:06;;;;;;;8.60;3.42;;;11.00;84.40;;;;;;4992535;28;20069;-90
2022/04/20 07:32:32;;;;;;;8.40;3.53;;;11.10;83.20;;;;;;4992830;28;20061;-91
2022/04/20 07:34:57;;;;;;;9.55;3.58;;;11.20;83.40;;;;;;4993230;28;20093;-91
2022/04/20 07:37:23;;;;;;;8.35;3.20;;;11.20;80.50;;;;;;4992931;28;20495;-91
2022/04/20 07:39:48;;;;;;;8.20;3.38;;;11.30;78.30;;;;;;4992875;28;20046;-91
2022/04/20 07:42:14;;;;;;;8.80;3.08;;;11.30;77.50;;;;;;4992669;28;20066;-91
2022/04/20 07:44:39;;;;;;;7.07;3.20;;;11.40;76.90;;;;;;4992272;28;20038;-90
2022/04/20 07:47:05;;;;;;;8.55;3.55;;;11.50;77.60;;;;;;5008977;28;20061;-90
2022/04/20 07:52:19;;;;;;;9.25;3.25;;;11.70;77.80;;;;;;5011592;28;20045;-90
2022/04/20 07:54:45;;;;;;;8.00;3.75;;;11.80;77.10;;;;;;5012357;28;20034;-90
2022/04/20 07:57:14;;;;;;;8.73;3.72;;;11.80;77.20;;;;;;4996226;28;20532;-91
2022/04/20 07:59:40;;;;;;;9.00;4.03;;;11.90;76.40;;;;;;4998276;28;20100;-91
2022/04/20 08:02:06;;;;;;;10.88;3.67;;;12.00;75.00;;;;;;4992047;28;20050;-91
2022/04/20 08:04:31;;;;;;;10.07;4.03;;;12.10;74.90;;;;;;4975095;28;20415;-91
2022/04/20 08:06:57;;;;;;;10.70;4.30;;;12.20;75.30;;;;;;4992978;28;20046;-91
2022/04/20 08:09:24;;;;;;;8.45;3.47;;;12.30;74.40;;;;;;4992391;28;20050;-91
2022/04/20 08:11:49;;;;;;;9.40;3.78;;;12.40;74.00;;;;;;4976017;28;20388;-91
2022/04/20 08:14:15;;;;;;;9.45;3.30;;;12.50;74.00;;;;;;4992732;28;20045;-91
2022/04/20 08:16:43;;;;;;;8.38;3.60;;;12.60;72.70;;;;;;4976377;28;20049;-91
2022/04/20 08:19:09;;;;;;;9.55;3.38;;;12.70;72.30;;;;;;4992501;28;20459;-91
2022/04/20 08:21:35;;;;;;;8.68;3.40;;;12.80;71.90;;;;;;4976134;28;20543;-91
2022/04/20 08:24:00;;;;;;;7.35;2.70;;;12.90;68.60;;;;;;4990026;28;20039;-92
2022/04/20 08:26:26;;;;;;;7.88;3.15;;;12.90;67.10;;;;;;4975952;28;20050;-91
2022/04/20 08:28:52;;;;;;;6.55;2.78;;;13.00;66.80;;;;;;4975979;28;20579;-91
2022/04/20 08:31:17;;;;;;;9.63;4.70;;;13.10;66.60;;;;;;4991740;28;20046;-92
2022/04/20 08:33:43;;;;;;;8.25;3.88;;;13.20;66.10;;;;;;4991890;28;20438;-91
2022/04/20 08:36:11;;;;;;;9.88;4.50;;;13.30;66.00;;;;;;4976279;28;20527;-92
2022/04/20 08:38:38;;;;;;;7.72;3.53;;;13.30;66.00;;;;;;4976044;28;20053;-91
2022/04/20 08:41:04;;;;;;;9.95;3.33;;;13.40;65.40;;;;;;4975622;28;20052;-91
2022/04/20 08:43:31;;;;;;;9.07;4.07;;;13.50;65.70;;;;;;4992491;28;20483;-91
2022/04/20 08:46:00;;;;;;;10.27;3.38;;;13.60;64.50;;;;;;4975547;28;20054;-91
2022/04/20 08:48:25;;;;;;;8.38;3.65;;;13.60;64.10;;;;;;4987397;28;20034;-91
2022/04/20 08:50:55;;;;;;;8.73;3.55;;;13.70;63.50;;;;;;4991833;28;20562;-90
2022/04/20 08:53:21;;;;;;;9.68;3.45;;;13.80;62.70;;;;;;4991971;28;20070;-91
2022/04/20 08:55:47;;;;;;;8.25;3.13;;;13.80;62.30;;;;;;4992103;28;20034;-91
2022/04/20 08:58:15;;;;;;;7.70;3.35;;;13.90;62.40;;;;;;4990872;28;20040;-91
2022/04/20 09:00:41;;;;;;;9.95;3.58;;;14.00;62.80;;;;;;4974987;28;20042;-90
2022/04/20 09:03:07;;;;;;;7.88;2.80;;;14.10;62.30;;;;;;4991324;28;20046;-91
2022/04/20 09:05:34;;;;;;;8.27;3.22;;;14.20;62.00;;;;;;4975166;28;20409;-91
2022/04/20 09:08:11;;;;;;;8.48;3.90;;;14.30;61.00;;;;;;4991008;28;20133;-91
2022/04/20 09:10:38;;;;;;;7.95;3.17;;;14.40;60.30;;;;;;4975357;28;20061;-91
2022/04/20 09:13:11;;;;;;;7.22;2.97;;;14.40;60.20;;;;;;4975229;28;20035;-91
2022/04/20 09:15:38;;;;;;;8.85;3.45;;;14.50;60.70;;;;;;4991320;28;20040;-91
2022/04/20 09:18:06;;;;;;;6.20;2.67;;;14.70;59.80;;;;;;4991264;28;20042;-90
2022/04/20 09:20:34;;;;;;;6.32;2.17;;;14.80;57.40;;;;;;4973945;28;20534;-90
2022/04/20 09:23:02;;;;;;;8.95;2.60;;;14.80;56.50;;;;;;4990266;28;20042;-91
2022/04/20 09:25:39;;;;;;;6.18;2.20;;;14.90;55.60;;;;;;4990184;28;20089;-91
2022/04/20 09:28:06;;;;;;;7.95;2.72;;;15.00;56.00;;;;;;4971276;28;20046;-91
2022/04/20 09:30:41;;;;;;;6.43;2.25;;;15.10;56.20;;;;;;4971610;28;20093;-92
2022/04/20 09:33:08;;;;;;;8.15;3.30;;;15.20;54.20;;;;;;4955658;28;20039;-90
2022/04/20 09:35:47;;;;;;;7.35;2.50;;;15.30;53.80;;;;;;4975670;28;20046;-92
2022/04/20 09:38:16;;;;;;;6.43;2.10;;;15.50;51.90;;;;;;4990552;28;20519;-92
2022/04/20 09:40:43;;;;;;;7.20;2.53;;;15.60;53.00;;;;;;4990920;28;20046;-91
2022/04/20 09:43:15;;;;;;;8.05;2.53;;;15.70;53.00;;;;;;4974389;28;20500;-92
2022/04/20 09:45:41;;;;;;;7.00;2.50;;;15.80;51.70;;;;;;4990667;28;20074;-91
2022/04/20 09:51:14;;;;;;;7.57;2.58;;;16.00;51.70;;;;;;4990944;28;20119;-93
2022/04/20 09:53:41;;;;;;;5.85;2.22;;;16.10;51.20;;;;;;4991287;28;20049;-92
2022/04/20 09:56:22;;;;;;;6.60;2.63;;;16.20;50.80;;;;;;4974798;28;20042;-91
2022/04/20 09:59:03;;;;;;;5.57;2.30;;;16.30;49.70;;;;;;4974142;28;20038;-91
2022/04/20 10:01:30;;;;;;;6.32;1.92;;;16.40;48.40;;;;;;4974544;28;20138;-92
2022/04/20 10:03:57;;;;;;;6.45;2.17;;;16.50;49.60;;;;;;4990500;28;20504;-91
2022/04/20 10:06:23;;;;;;;5.22;2.13;;;16.60;49.00;;;;;;4990883;28;20382;-92
2022/04/20 10:08:49;;;;;;;7.88;2.40;;;16.80;49.50;;;;;;4974743;28;20048;-92
2022/04/20 10:11:16;;;;;;;7.40;2.40;;;16.80;50.30;;;;;;4990982;28;20046;-92
2022/04/20 10:13:41;;;;;;;8.38;2.53;;;16.90;48.80;;;;;;4990970;28;20058;-92
2022/04/20 10:16:10;;;;;;;6.22;2.08;;;17.00;48.90;;;;;;4974888;28;20046;-92
2022/04/20 10:18:39;;;;;;;5.70;1.95;;;17.00;48.60;;;;;;4991362;28;20042;-92
2022/04/20 10:21:13;;;;;;;6.18;2.10;;;17.10;48.60;;;;;;4999666;28;20515;-92
2022/04/20 10:23:49;;;;;;;6.20;2.00;;;17.20;48.00;;;;;;4981253;28;20073;-92
2022/04/20 10:26:17;;;;;;;6.93;2.00;;;17.40;48.80;;;;;;4999195;28;20080;-92
2022/04/20 10:29:01;;;;;;;9.02;4.25;;;17.50;47.60;;;;;;5010634;28;20125;-91
2022/04/20 10:31:57;;;;;;;11.10;4.25;;;17.60;46.40;;;;;;4993990;28;20065;-92
2022/04/20 10:34:22;;;;;;;8.40;3.55;;;17.60;46.70;;;;;;5010039;28;20084;-91
2022/04/20 10:36:59;;;;;;;7.80;3.42;;;17.70;46.90;;;;;;5010609;28;20041;-91
2022/04/20 10:39:27;;;;;;;8.38;3.00;;;17.80;47.60;;;;;;5010708;28;20053;-91
2022/04/20 10:42:11;;;;;;;7.40;2.72;;;17.80;47.90;;;;;;5009975;28;20423;-91
2022/04/20 10:45:12;;;;;;;6.40;2.50;;;18.00;47.00;;;;;;5010186;28;20517;-90
2022/04/20 10:47:44;;;;;;;9.40;2.85;;;18.10;44.90;;;;;;4934342;29;20063;-89
2022/04/20 10:50:21;;;;;;;6.35;2.63;;;18.10;46.10;;;;;;4922736;29;20154;-91
2022/04/20 10:53:04;;;;;;;7.65;2.75;;;18.30;47.10;;;;;;4928694;28;20036;-91
2022/04/20 10:55:30;;;;;;;11.05;5.30;;;18.40;47.30;;;;;;4917963;29;20043;-90
2022/04/20 10:57:56;;;;;;;6.30;2.50;;;18.50;46.20;;;;;;4920793;29;20115;-91
2022/04/20 11:00:23;;;;;;;5.78;2.30;;;18.70;45.10;;;;;;4919992;29;20494;-91
2022/04/20 11:02:53;;;;;;;6.15;2.65;;;18.70;45.80;;;;;;4919586;29;20086;-91
2022/04/20 11:05:23;;;;;;;6.43;2.47;;;18.90;45.60;;;;;;4904072;29;20052;-90
2022/04/20 11:08:04;;;;;;;6.53;2.40;;;19.00;45.20;;;;;;4919445;29;20063;-91
2022/04/20 11:10:32;;;;;;;5.90;2.40;;;19.10;45.40;;;;;;4918578;29;20123;-90
2022/04/20 11:19:06;;;;;;;7.80;2.33;;;19.50;45.30;;;;;;4916532;29;20098;-91
2022/04/20 11:21:32;;;;;;;8.75;3.85;;;19.60;44.50;;;;;;4918196;29;20040;-90
2022/04/20 11:24:01;;;;;;;9.20;3.95;;;19.70;45.10;;;;;;4939863;28;20112;-90
2022/04/20 11:26:41;;;;;;;6.88;2.63;;;19.80;43.40;;;;;;4969237;28;20081;-91
2022/04/20 11:29:22;;;;;;;7.35;2.40;;;19.90;44.20;;;;;;4958005;28;20081;-90
2022/04/20 11:32:04;;;;;;;7.47;2.45;;;20.00;44.30;;;;;;4973632;28;20544;-91
2022/04/20 11:34:34;;;;;;;7.05;2.47;;;20.20;44.90;;;;;;4985148;28;20038;-91
2022/04/20 11:37:04;;;;;;;5.60;2.10;;;20.40;44.50;;;;;;5002818;28;20038;-91
2022/04/20 11:39:30;;;;;;;6.55;2.10;;;20.40;44.50;;;;;;5003536;28;20045;-91
2022/04/20 11:42:04;;;;;;;6.78;2.35;;;20.50;42.10;;;;;;5011103;28;20145;-91
2022/04/20 11:44:31;;;;;;;6.03;2.00;;;20.50;41.20;;;;;;4996899;28;20544;-91
2022/04/20 11:47:02;;;;;;;5.97;2.22;;;20.50;41.60;;;;;;4993835;28;20041;-90
2022/04/20 11:49:40;;;;;;;6.00;2.30;;;20.60;40.20;;;;;;4991910;28;20057;-91
2022/04/20 11:52:09;;;;;;;8.35;2.50;;;20.70;39.30;;;;;;4976677;28;20030;-90
2022/04/20 11:54:36;;;;;;;6.05;2.22;;;20.80;39.30;;;;;;4992474;28;20038;-91
2022/04/20 11:57:06;;;;;;;5.88;2.38;;;20.90;40.50;;;;;;4977096;28;20077;-91
2022/04/20 11:59:32;;;;;;;6.25;2.20;;;21.00;41.20;;;;;;4992582;28;20484;-91
2022/04/20 12:01:58;;;;;;;7.78;2.38;;;21.20;40.60;;;;;;4992353;28;20085;-90
2022/04/20 12:04:27;;;;;;;7.43;2.40;;;21.30;40.60;;;;;;4992828;28;20130;-90
2022/04/20 12:06:55;;;;;;;5.43;2.10;;;21.40;40.40;;;;;;4991806;28;20121;-90
2022/04/20 12:09:24;;;;;;;5.68;2.10;;;21.50;40.20;;;;;;4993000;28;20486;-91
2022/04/20 12:12:06;;;;;;;6.18;2.10;;;21.60;40.40;;;;;;4992304;28;20122;-90
2022/04/20 12:14:37;;;;;;;6.88;2.90;;;21.80;40.40;;;;;;4992101;28;20078;-90
2022/04/20 12:17:14;;;;;;;6.28;2.30;;;21.90;40.10;;;;;;4992595;28;20046;-90
2022/04/20 12:19:44;;;;;;;7.20;2.33;;;21.90;38.90;;;;;;4992471;28;20046;-90
2022/04/20 12:22:12;;;;;;;6.35;2.30;;;22.00;39.40;;;;;;4992175;28;20038;-91
2022/04/20 12:24:38;;;;;;;6.03;2.25;;;22.10;39.10;;;;;;4992416;28;20082;-90
2022/04/20 12:27:15;;;;;;;5.93;2.08;;;22.10;38.50;;;;;;4992047;28;20420;-90
2022/04/20 12:29:40;;;;;;;5.80;2.22;;;22.20;38.40;;;;;;4992333;28;20121;-90
2022/04/20 12:32:07;;;;;;;9.32;2.90;;;22.30;39.30;;;;;;4975848;28;20129;-90
2022/04/20 12:34:32;;;;;;;7.75;2.25;;;22.50;38.70;;;;;;4976098;28;20620;-90
2022/04/20 12:36:59;;;;;;;5.75;2.33;;;22.60;38.10;;;;;;4992282;28;20059;-90
2022/04/20 12:39:38;;;;;;;6.88;2.70;;;22.70;38.10;;;;;;4988333;28;20034;-90
2022/04/20 12:42:09;;;;;;;10.95;2.92;;;22.80;38.30;;;;;;4991241;28;20038;-90
2022/04/20 12:44:34;;;;;;;6.80;2.67;;;23.00;38.20;;;;;;4990655;28;20038;-90
2022/04/20 12:47:01;;;;;;;5.78;2.55;;;23.00;37.60;;;;;;4991205;28;20038;-90
2022/04/20 12:49:27;;;;;;;6.90;2.88;;;23.00;38.00;;;;;;5000627;28;20073;-91
2022/04/20 12:51:52;;;;;;;9.55;2.53;;;23.10;38.60;;;;;;5000306;28;20068;-90
2022/04/20 12:54:25;;;;;;;13.32;3.50;;;23.30;38.90;;;;;;4991279;28;20066;-91
2022/04/20 13:02:19;;;;;;;7.93;3.28;;;23.40;37.60;;;;;;4991358;28;20050;-91
2022/04/20 13:04:49;;;;;;;7.30;3.30;;;23.70;38.30;;;;;;4991627;28;20405;-90
2022/04/20 13:07:15;;;;;;;9.90;3.35;;;23.70;37.60;;;;;;4991901;28;20113;-90
2022/04/20 13:09:40;;;;;;;9.10;3.75;;;23.60;37.80;;;;;;4990098;28;20492;-91
2022/04/20 13:12:06;;;;;;;8.20;3.05;;;23.60;37.90;;;;;;4990152;28;20030;-90
2022/04/20 13:14:32;;;;;;;8.38;3.50;;;23.70;38.40;;;;;;4991726;28;20101;-90
2022/04/20 13:16:58;;;;;;;8.82;3.30;;;23.80;37.60;;;;;;4991091;28;20050;-91
2022/04/20 13:19:23;;;;;;;7.05;3.20;;;23.90;37.30;;;;;;4991582;28;20077;-91
2022/04/20 13:21:49;;;;;;;7.07;3.20;;;24.10;37.90;;;;;;4991057;28;20121;-90
2022/04/20 13:27:54;;;;;;;9.57;4.03;;;24.40;38.30;;;;;;4975115;28;20076;-90
2022/04/20 13:29:47;;;;;;;9.07;3.70;;;24.40;36.50;;;;;;4991014;28;20055;-90
2022/04/20 13:32:14;;;;;;;10.80;5.65;;;24.50;36.40;;;;;;4975027;28;20389;-90